Time;durP1;ratioP1;P1;durP2;ratioP2;P2;SDS_P1;SDS_P2;PMS_P1;PMS_P2;Temp;Humidity;BMP_temperature;BMP_pressure;BME280_temperature;BME280_humidity;BME280_pressure;Samples;Min_cycle;Max_cycle;Signal;HPM_P1;HPM_P2
2021/04/23 00:02:09;;;;;;;7.47;2.97;;;6.70;73.50;;;;;;6134178;23;20017;-87
2021/04/23 00:04:35;;;;;;;4.93;2.13;;;6.70;73.60;;;;;;6130013;23;20006;-89
2021/04/23 00:07:02;;;;;;;5.32;2.03;;;6.70;73.50;;;;;;6130597;23;20020;-87
2021/04/23 00:09:31;;;;;;;4.22;1.83;;;6.70;73.90;;;;;;6130315;23;20242;-88
2021/04/23 00:12:04;;;;;;;5.63;1.83;;;6.60;73.90;;;;;;6130461;23;20029;-88
2021/04/23 00:14:36;;;;;;;3.97;2.35;;;6.60;74.30;;;;;;6130939;23;20014;-89
2021/04/23 00:17:02;;;;;;;10.40;1.77;;;6.60;74.40;;;;;;6153737;23;20025;-88
2021/04/23 00:19:29;;;;;;;2.65;2.10;;;6.60;74.40;;;;;;6130355;23;20009;-89
2021/04/23 00:21:56;;;;;;;5.15;2.42;;;6.60;74.40;;;;;;6131340;23;20002;-89
2021/04/23 00:24:22;;;;;;;3.97;2.65;;;6.50;74.70;;;;;;6131210;23;20065;-89
2021/04/23 00:26:48;;;;;;;7.40;2.08;;;6.50;74.60;;;;;;6130181;23;20010;-88
2021/04/23 00:29:14;;;;;;;6.45;1.98;;;6.50;74.50;;;;;;6129835;23;20515;-88
2021/04/23 00:31:40;;;;;;;8.65;2.25;;;6.50;74.90;;;;;;6130607;23;20006;-89
2021/04/23 00:34:06;;;;;;;7.63;2.70;;;6.50;75.10;;;;;;6130894;23;20009;-89
2021/04/23 00:36:33;;;;;;;4.88;2.40;;;6.40;75.00;;;;;;6129732;23;20006;-87
2021/04/23 00:39:00;;;;;;;9.57;2.40;;;6.40;75.00;;;;;;6129763;23;20012;-88
2021/04/23 00:41:30;;;;;;;5.72;2.03;;;6.40;75.10;;;;;;6130228;23;20036;-88
2021/04/23 00:43:57;;;;;;;3.90;2.58;;;6.30;75.80;;;;;;6130274;23;20024;-88
2021/04/23 00:46:29;;;;;;;3.30;2.40;;;6.30;75.60;;;;;;6130423;23;20012;-87
2021/04/23 00:48:56;;;;;;;4.22;2.35;;;6.30;75.70;;;;;;6130966;23;20076;-89
2021/04/23 00:51:26;;;;;;;6.75;2.67;;;6.30;76.20;;;;;;6130709;23;20009;-88
2021/04/23 00:53:54;;;;;;;7.10;2.13;;;6.20;76.10;;;;;;6157376;23;20033;-89
2021/04/23 00:56:23;;;;;;;4.90;2.15;;;6.20;76.30;;;;;;6129564;23;20089;-87
2021/04/23 00:58:49;;;;;;;4.93;2.50;;;6.20;76.60;;;;;;6130234;23;20010;-88
2021/04/23 01:01:22;;;;;;;6.80;2.55;;;6.20;76.50;;;;;;6130412;23;20002;-87
2021/04/23 01:03:48;;;;;;;4.65;2.50;;;6.20;76.40;;;;;;6131168;23;20010;-89
2021/04/23 01:06:16;;;;;;;5.15;2.30;;;6.20;76.80;;;;;;6130329;23;20072;-88
2021/04/23 01:08:45;;;;;;;9.68;2.35;;;6.10;77.00;;;;;;6129785;23;20021;-88
2021/04/23 01:11:12;;;;;;;5.47;2.80;;;6.10;77.30;;;;;;6130041;23;20012;-88
2021/04/23 01:13:37;;;;;;;4.20;1.52;;;6.10;77.40;;;;;;6129082;23;20080;-87
2021/04/23 01:16:09;;;;;;;7.20;2.65;;;6.10;77.50;;;;;;6130194;23;20006;-87
2021/04/23 01:18:36;;;;;;;5.95;2.45;;;6.00;77.80;;;;;;6129753;23;20009;-87
2021/04/23 01:21:14;;;;;;;8.10;3.17;;;6.00;77.70;;;;;;6129805;23;20006;-87
2021/04/23 01:23:41;;;;;;;7.10;2.67;;;6.00;77.80;;;;;;6131340;23;20028;-87
2021/04/23 01:26:09;;;;;;;5.03;2.78;;;5.90;78.40;;;;;;6154063;23;20002;-88
2021/04/23 01:28:36;;;;;;;3.80;3.13;;;6.00;78.40;;;;;;6154647;23;20389;-88
2021/04/23 01:31:05;;;;;;;5.32;2.72;;;6.00;78.00;;;;;;6129114;23;20013;-88
2021/04/23 01:33:31;;;;;;;7.00;3.35;;;6.00;78.20;;;;;;6154404;23;20033;-89
2021/04/23 01:35:57;;;;;;;7.72;3.03;;;6.00;78.40;;;;;;6129699;23;20255;-89
2021/04/23 01:38:22;;;;;;;6.68;3.28;;;6.00;78.40;;;;;;6129325;23;20006;-89
2021/04/23 01:40:48;;;;;;;10.30;3.15;;;6.00;78.30;;;;;;6130053;23;20073;-88
2021/04/23 01:43:15;;;;;;;9.10;3.40;;;6.00;78.60;;;;;;6129449;23;20002;-88
2021/04/23 01:45:41;;;;;;;9.20;2.90;;;6.00;78.80;;;;;;6133489;23;20089;-87
2021/04/23 01:48:07;;;;;;;8.13;3.47;;;6.00;79.00;;;;;;6105454;23;20009;-88
2021/04/23 01:50:33;;;;;;;5.55;3.35;;;6.00;78.90;;;;;;6129182;23;20006;-87
2021/04/23 01:52:59;;;;;;;6.93;2.85;;;6.00;78.90;;;;;;6129918;23;20318;-88
2021/04/23 01:55:25;;;;;;;4.82;3.00;;;5.90;79.50;;;;;;6129416;23;20021;-87
2021/04/23 01:57:50;;;;;;;8.75;3.60;;;5.90;79.70;;;;;;6129806;23;20334;-88
2021/04/23 02:00:20;;;;;;;6.18;3.08;;;5.90;79.90;;;;;;6129633;23;20002;-88
2021/04/23 02:02:46;;;;;;;8.40;3.75;;;5.80;80.10;;;;;;6129597;23;20327;-89
2021/04/23 02:05:13;;;;;;;9.70;3.75;;;5.80;80.20;;;;;;6129793;23;20016;-88
2021/04/23 02:07:39;;;;;;;4.50;3.30;;;5.80;80.50;;;;;;6128934;23;20013;-89
2021/04/23 02:10:09;;;;;;;4.20;3.10;;;5.80;80.60;;;;;;6129106;23;20092;-87
2021/04/23 02:12:37;;;;;;;8.93;3.50;;;5.80;80.70;;;;;;6129281;23;20010;-89
2021/04/23 02:15:07;;;;;;;10.27;3.65;;;5.80;81.10;;;;;;6129425;23;20025;-89
2021/04/23 02:17:32;;;;;;;9.95;3.78;;;5.80;81.30;;;;;;6129383;23;20244;-88
2021/04/23 02:19:58;;;;;;;7.90;4.03;;;5.80;81.30;;;;;;6128955;23;20006;-88
2021/04/23 02:22:24;;;;;;;12.10;3.92;;;5.70;81.90;;;;;;6129330;23;19998;-89
2021/04/23 02:24:49;;;;;;;7.03;3.63;;;5.70;82.20;;;;;;6154627;23;20067;-88
2021/04/23 02:27:15;;;;;;;11.57;3.92;;;5.70;82.10;;;;;;6129737;23;20002;-88
2021/04/23 02:29:40;;;;;;;8.07;4.53;;;5.80;82.30;;;;;;6129464;23;19998;-87
2021/04/23 02:32:06;;;;;;;10.52;3.80;;;5.80;82.30;;;;;;6129325;23;20084;-88
2021/04/23 02:34:32;;;;;;;11.77;4.20;;;5.80;82.20;;;;;;6129752;23;20013;-88
2021/04/23 02:36:57;;;;;;;8.27;4.03;;;5.80;82.30;;;;;;6130135;23;20097;-89
2021/04/23 02:39:23;;;;;;;9.50;4.13;;;5.80;82.80;;;;;;6130007;23;20250;-89
2021/04/23 02:41:53;;;;;;;10.65;4.95;;;5.80;83.10;;;;;;6129975;23;20057;-87
2021/04/23 02:44:19;;;;;;;11.23;4.57;;;5.80;83.00;;;;;;6129819;23;20085;-88
2021/04/23 02:46:45;;;;;;;7.45;3.72;;;5.80;83.20;;;;;;6129616;23;20005;-90
2021/04/23 02:49:11;;;;;;;6.18;4.03;;;5.80;83.30;;;;;;6129713;23;20017;-89
2021/04/23 02:51:41;;;;;;;10.23;4.13;;;5.80;83.20;;;;;;6129864;23;20009;-89
2021/04/23 02:54:08;;;;;;;8.00;4.50;;;5.80;83.40;;;;;;6129349;23;20017;-88
2021/04/23 02:56:34;;;;;;;15.30;4.25;;;5.80;83.80;;;;;;6129657;23;20026;-89
2021/04/23 02:59:01;;;;;;;8.82;5.13;;;5.70;84.00;;;;;;6128847;23;20009;-87
2021/04/23 03:01:32;;;;;;;13.10;4.90;;;5.80;84.10;;;;;;6129730;23;20008;-88
2021/04/23 03:03:58;;;;;;;18.50;5.32;;;5.80;84.40;;;;;;6153267;23;20016;-87
2021/04/23 03:06:24;;;;;;;24.45;6.05;;;5.80;84.60;;;;;;6128744;23;20013;-88
2021/04/23 03:08:50;;;;;;;12.45;4.65;;;5.80;84.60;;;;;;6129417;23;20041;-89
2021/04/23 03:11:18;;;;;;;11.52;4.85;;;5.80;84.70;;;;;;6153788;23;20014;-88
2021/04/23 03:13:47;;;;;;;13.02;5.32;;;5.80;85.10;;;;;;6129713;23;20010;-87
2021/04/23 03:16:17;;;;;;;11.30;5.20;;;5.80;84.80;;;;;;6129762;23;20015;-88
2021/04/23 03:18:43;;;;;;;10.32;4.75;;;5.90;84.80;;;;;;6129664;23;20005;-88
2021/04/23 03:21:11;;;;;;;7.00;3.70;;;5.80;84.80;;;;;;6129261;23;19998;-87
2021/04/23 03:23:37;;;;;;;10.40;5.22;;;5.80;84.80;;;;;;6129231;23;20042;-87
2021/04/23 03:26:04;;;;;;;13.85;4.90;;;5.80;85.10;;;;;;6128831;23;20002;-89
2021/04/23 03:28:34;;;;;;;12.55;5.07;;;5.90;85.30;;;;;;6129338;23;20081;-90
2021/04/23 03:31:01;;;;;;;14.48;4.85;;;5.90;85.40;;;;;;6132211;23;20037;-88
2021/04/23 03:33:26;;;;;;;9.75;4.32;;;5.80;85.50;;;;;;6131234;23;20010;-88
2021/04/23 03:35:56;;;;;;;9.75;5.53;;;5.90;85.30;;;;;;6155632;23;20012;-89
2021/04/23 03:38:29;;;;;;;10.48;4.60;;;5.90;85.10;;;;;;6131066;23;20010;-88
2021/04/23 03:40:55;;;;;;;;;;;6.00;84.90;;;;;;6131291;23;20037;-90
2021/04/23 03:43:20;;;;;;;9.10;4.90;;;6.00;84.90;;;;;;6130664;23;20225;-89
2021/04/23 03:45:48;;;;;;;17.83;5.32;;;6.00;84.80;;;;;;6130960;23;20013;-89
2021/04/23 03:48:14;;;;;;;9.77;4.47;;;6.00;84.80;;;;;;6130921;23;20020;-89
2021/04/23 03:50:40;;;;;;;17.17;5.30;;;6.00;84.90;;;;;;6130656;23;20041;-89
2021/04/23 03:53:09;;;;;;;16.65;5.55;;;6.10;84.70;;;;;;6131205;23;20073;-89
2021/04/23 03:55:39;;;;;;;16.30;5.40;;;6.00;84.80;;;;;;6130344;23;20333;-85
2021/04/23 03:58:08;;;;;;;10.85;5.20;;;6.00;85.00;;;;;;6130292;23;20005;-88
2021/04/23 04:00:42;;;;;;;12.43;5.13;;;6.10;84.90;;;;;;6131069;23;20085;-89
2021/04/23 04:03:09;;;;;;;10.48;4.88;;;6.10;84.90;;;;;;6130197;23;20461;-87
2021/04/23 04:05:35;;;;;;;15.10;5.68;;;6.10;84.70;;;;;;6155324;23;20239;-89
2021/04/23 04:08:03;;;;;;;11.73;5.18;;;6.10;84.70;;;;;;6131406;23;20029;-88
2021/04/23 04:10:28;;;;;;;12.93;4.60;;;6.10;84.70;;;;;;6130523;23;20014;-89
2021/04/23 04:12:54;;;;;;;11.05;5.28;;;6.20;84.50;;;;;;6130584;23;20045;-88
2021/04/23 04:15:20;;;;;;;10.60;4.63;;;6.20;84.30;;;;;;6129698;23;20038;-88
2021/04/23 04:17:46;;;;;;;11.15;5.65;;;6.20;84.20;;;;;;6129797;23;20097;-87
2021/04/23 04:20:13;;;;;;;11.50;4.95;;;6.30;84.60;;;;;;6130603;23;20006;-88
2021/04/23 04:22:39;;;;;;;13.18;4.18;;;6.20;84.00;;;;;;6131294;23;20010;-89
2021/04/23 04:25:08;;;;;;;12.15;5.40;;;6.20;84.30;;;;;;6130665;23;20342;-88
2021/04/23 04:27:33;;;;;;;8.77;4.70;;;6.20;84.40;;;;;;6130199;23;20093;-89
2021/04/23 04:30:00;;;;;;;7.95;4.32;;;6.20;84.20;;;;;;6130313;23;20085;-89
2021/04/23 04:32:27;;;;;;;9.90;4.47;;;6.20;84.40;;;;;;6130175;23;20108;-88
2021/04/23 04:34:52;;;;;;;10.95;4.85;;;6.20;84.40;;;;;;6130242;23;20002;-89
2021/04/23 04:37:18;;;;;;;8.23;4.95;;;6.30;84.50;;;;;;6129738;23;20020;-87
2021/04/23 04:39:44;;;;;;;10.20;4.50;;;6.40;83.90;;;;;;6126630;23;20013;-91
2021/04/23 04:42:11;;;;;;;12.05;4.85;;;6.50;83.70;;;;;;6130798;23;20002;-90
2021/04/23 04:44:38;;;;;;;11.85;4.25;;;6.50;83.30;;;;;;6128087;23;20006;-90
2021/04/23 04:47:03;;;;;;;9.30;4.47;;;6.60;82.40;;;;;;6129577;23;20497;-89
2021/04/23 04:49:30;;;;;;;7.72;4.10;;;6.50;82.70;;;;;;6130058;23;20017;-89
2021/04/23 04:51:56;;;;;;;7.70;3.97;;;6.50;82.80;;;;;;6130038;23;20080;-89
2021/04/23 04:54:22;;;;;;;17.10;4.85;;;6.60;83.20;;;;;;6129711;23;20096;-89
2021/04/23 04:56:47;;;;;;;19.52;4.85;;;6.60;82.70;;;;;;6130339;23;20018;-89
2021/04/23 04:59:14;;;;;;;7.75;3.88;;;6.50;82.90;;;;;;6129837;23;20097;-89
2021/04/23 05:01:39;;;;;;;10.52;5.18;;;6.50;82.90;;;;;;6130258;23;20134;-89
2021/04/23 05:04:05;;;;;;;10.30;4.50;;;6.40;83.00;;;;;;6130204;23;20006;-90
2021/04/23 05:06:31;;;;;;;13.20;4.97;;;6.40;83.30;;;;;;6129565;23;20010;-90
2021/04/23 05:08:57;;;;;;;9.85;5.05;;;6.50;83.50;;;;;;6131814;23;20006;-90
2021/04/23 05:11:23;;;;;;;14.95;4.15;;;6.40;83.30;;;;;;6129978;23;20021;-89
2021/04/23 05:13:49;;;;;;;13.95;5.00;;;6.40;83.60;;;;;;6131398;23;20025;-88
2021/04/23 05:16:16;;;;;;;9.40;4.18;;;6.40;83.50;;;;;;6130839;23;20012;-87
2021/04/23 05:18:43;;;;;;;9.48;4.88;;;6.30;83.70;;;;;;6130571;23;20017;-90
2021/04/23 05:21:09;;;;;;;12.38;4.90;;;6.30;83.50;;;;;;6130526;23;20068;-90
2021/04/23 05:23:36;;;;;;;10.50;4.93;;;6.20;84.30;;;;;;6130483;23;20282;-89
2021/04/23 05:26:02;;;;;;;10.25;5.05;;;6.20;84.00;;;;;;6129659;23;20253;-90
2021/04/23 05:28:28;;;;;;;9.93;5.20;;;6.20;84.20;;;;;;6130033;23;20018;-88
2021/04/23 05:30:54;;;;;;;9.15;4.93;;;6.20;84.30;;;;;;6130897;23;20016;-90
2021/04/23 05:33:20;;;;;;;11.52;4.47;;;6.20;83.60;;;;;;6130488;23;20326;-91
2021/04/23 05:35:46;;;;;;;8.02;4.63;;;6.20;83.80;;;;;;6131126;23;20053;-91
2021/04/23 05:38:12;;;;;;;13.70;4.97;;;6.20;83.40;;;;;;6130244;23;20048;-89
2021/04/23 05:40:46;;;;;;;10.77;5.18;;;6.20;83.70;;;;;;6130671;23;20527;-91
2021/04/23 05:43:13;;;;;;;12.32;4.63;;;6.20;84.00;;;;;;6130254;23;20005;-90
2021/04/23 05:45:40;;;;;;;7.78;4.18;;;6.30;83.90;;;;;;6130369;23;20048;-91
2021/04/23 05:48:07;;;;;;;8.02;4.32;;;6.40;82.90;;;;;;6131189;23;20026;-89
2021/04/23 05:50:34;;;;;;;9.88;4.05;;;6.40;83.30;;;;;;6129693;23;20242;-90
2021/04/23 05:52:59;;;;;;;13.60;4.60;;;6.50;82.60;;;;;;6129994;23;20138;-89
2021/04/23 05:55:25;;;;;;;14.98;4.70;;;6.60;82.30;;;;;;6128576;23;20039;-88
2021/04/23 05:57:58;;;;;;;30.55;15.85;;;6.70;82.00;;;;;;6127602;23;20238;-88
2021/04/23 06:00:26;;;;;;;14.90;9.60;;;6.70;81.90;;;;;;6154085;23;20013;-87
2021/04/23 06:02:54;;;;;;;10.20;5.43;;;6.80;81.70;;;;;;6129278;23;20048;-89
2021/04/23 06:05:22;;;;;;;11.10;4.03;;;6.90;81.40;;;;;;6131727;23;20077;-88
2021/04/23 06:07:47;;;;;;;9.40;4.20;;;6.90;81.30;;;;;;6129083;23;20261;-88
2021/04/23 06:10:16;;;;;;;9.07;3.95;;;7.00;81.40;;;;;;6129714;23;20034;-90
2021/04/23 06:12:42;;;;;;;5.55;4.22;;;7.10;80.30;;;;;;6129268;23;20534;-89
2021/04/23 06:15:09;;;;;;;9.15;3.97;;;7.20;80.40;;;;;;6129147;23;20014;-88
2021/04/23 06:17:36;;;;;;;12.20;4.97;;;7.30;80.00;;;;;;6128629;23;20017;-89
2021/04/23 06:20:04;;;;;;;12.50;4.25;;;7.40;79.80;;;;;;6129172;23;20006;-88
2021/04/23 06:22:29;;;;;;;11.27;4.38;;;7.40;79.80;;;;;;6129439;23;20005;-88
2021/04/23 06:24:55;;;;;;;9.65;4.40;;;7.50;79.70;;;;;;6127935;23;20349;-87
2021/04/23 06:27:20;;;;;;;8.52;4.28;;;7.60;79.40;;;;;;6128261;23;20030;-88
2021/04/23 06:29:47;;;;;;;13.77;4.70;;;7.70;79.00;;;;;;6128837;23;20002;-88
2021/04/23 06:32:13;;;;;;;7.45;3.83;;;7.70;78.20;;;;;;6128690;23;20382;-89
2021/04/23 06:34:38;;;;;;;8.23;3.40;;;7.70;78.00;;;;;;6128290;23;20005;-88
2021/04/23 06:37:04;;;;;;;10.65;3.47;;;7.70;78.00;;;;;;6152292;23;20567;-88
2021/04/23 06:39:29;;;;;;;6.75;2.97;;;7.70;78.00;;;;;;6129325;23;20061;-88
2021/04/23 06:41:55;;;;;;;6.10;3.42;;;7.90;77.90;;;;;;6126786;23;20357;-89
2021/04/23 06:44:20;;;;;;;8.25;3.47;;;8.00;77.30;;;;;;6128687;23;20064;-89
2021/04/23 06:46:47;;;;;;;6.30;2.83;;;8.00;76.80;;;;;;6130051;23;20080;-89
2021/04/23 06:49:13;;;;;;;7.43;3.28;;;8.10;76.30;;;;;;6128940;23;20096;-89
2021/04/23 06:51:40;;;;;;;12.68;3.60;;;8.10;76.10;;;;;;6128905;23;20010;-88
2021/04/23 06:54:06;;;;;;;14.63;2.88;;;8.10;75.90;;;;;;6128006;23;20014;-89
2021/04/23 06:56:32;;;;;;;7.28;3.10;;;8.20;75.90;;;;;;6131774;23;20173;-89
2021/04/23 06:58:59;;;;;;;9.10;2.53;;;8.30;75.60;;;;;;6129321;23;20014;-89
2021/04/23 07:01:25;;;;;;;9.07;2.50;;;8.30;74.90;;;;;;6128779;23;20009;-87
2021/04/23 07:03:50;;;;;;;6.95;3.05;;;8.30;74.90;;;;;;6129564;23;20081;-89
2021/04/23 07:06:16;;;;;;;5.85;2.42;;;8.40;75.00;;;;;;6130350;23;20006;-89
2021/04/23 07:08:42;;;;;;;7.63;2.30;;;8.40;73.80;;;;;;6131371;23;20250;-88
2021/04/23 07:11:07;;;;;;;5.40;3.00;;;8.50;73.90;;;;;;6132290;23;20048;-91
2021/04/23 07:13:33;;;;;;;5.78;2.20;;;8.50;74.40;;;;;;6131097;23;20014;-90
2021/04/23 07:15:59;;;;;;;6.03;2.50;;;8.50;73.20;;;;;;6130978;23;20013;-89
2021/04/23 07:18:26;;;;;;;8.18;2.55;;;8.60;73.90;;;;;;6131951;23;20271;-89
2021/04/23 07:20:55;;;;;;;7.88;2.58;;;8.60;72.70;;;;;;6154717;23;20242;-88
2021/04/23 07:23:21;;;;;;;6.50;2.25;;;8.70;73.10;;;;;;6132309;23;20001;-89
2021/04/23 07:25:48;;;;;;;7.38;2.40;;;8.80;72.90;;;;;;6130564;23;20068;-90
2021/04/23 07:28:13;;;;;;;4.93;2.55;;;8.80;73.30;;;;;;6131153;23;20456;-90
2021/04/23 07:30:40;;;;;;;7.60;2.38;;;8.80;73.10;;;;;;6131416;23;20005;-90
2021/04/23 07:33:11;;;;;;;5.13;2.25;;;8.80;72.90;;;;;;6130934;23;20010;-89
2021/04/23 07:35:37;;;;;;;5.63;2.08;;;8.90;72.40;;;;;;6131004;23;20198;-89
2021/04/23 07:38:03;;;;;;;5.68;2.30;;;8.90;72.00;;;;;;6130632;23;20029;-89
2021/04/23 07:40:29;;;;;;;4.13;2.58;;;9.00;72.00;;;;;;6106347;23;20017;-89
2021/04/23 07:42:56;;;;;;;3.92;2.00;;;9.10;71.50;;;;;;6131925;23;20057;-90
2021/04/23 07:45:25;;;;;;;5.45;2.50;;;9.20;70.80;;;;;;6130898;23;20002;-88
2021/04/23 07:47:51;;;;;;;7.18;2.83;;;9.30;71.90;;;;;;6130658;23;20006;-90
2021/04/23 07:50:20;;;;;;;5.68;2.50;;;9.40;72.00;;;;;;6131237;23;20033;-88
2021/04/23 07:52:46;;;;;;;6.25;2.40;;;9.40;70.50;;;;;;6132153;23;20006;-90
2021/04/23 07:55:13;;;;;;;10.18;3.13;;;9.50;70.90;;;;;;6155471;23;20002;-90
2021/04/23 07:57:39;;;;;;;4.45;2.58;;;9.60;71.30;;;;;;6130832;23;20083;-89
2021/04/23 08:00:10;;;;;;;19.77;5.70;;;9.80;69.40;;;;;;6130144;23;20395;-90
2021/04/23 08:02:36;;;;;;;19.55;6.43;;;9.80;69.80;;;;;;6131557;23;20088;-90
2021/04/23 08:05:03;;;;;;;12.35;3.92;;;9.90;70.20;;;;;;6130915;23;20033;-91
2021/04/23 08:07:29;;;;;;;95.95;25.05;;;9.70;70.00;;;;;;6131560;23;20006;-89
2021/04/23 08:09:56;;;;;;;14.45;5.28;;;9.60;70.10;;;;;;6130935;23;20353;-89
2021/04/23 08:12:21;;;;;;;13.63;5.32;;;9.60;70.10;;;;;;6131794;23;20002;-89
2021/04/23 08:14:47;;;;;;;10.90;5.90;;;9.50;71.20;;;;;;6131509;23;20009;-89
2021/04/23 08:17:13;;;;;;;11.32;4.28;;;9.60;70.00;;;;;;6131288;23;20009;-91
2021/04/23 08:19:39;;;;;;;6.82;3.13;;;9.50;70.20;;;;;;6156534;23;20101;-90
2021/04/23 08:22:05;;;;;;;30.27;6.38;;;9.40;69.90;;;;;;6132303;23;20002;-89
2021/04/23 08:24:31;;;;;;;18.02;6.90;;;9.40;70.90;;;;;;6155875;23;20037;-89
2021/04/23 08:26:57;;;;;;;36.88;11.77;;;9.40;70.40;;;;;;6130479;23;19998;-89
2021/04/23 08:29:22;;;;;;;84.28;24.05;;;9.30;70.60;;;;;;6155626;23;20072;-89
2021/04/23 08:31:48;;;;;;;11.65;4.97;;;9.30;70.80;;;;;;6131109;23;20404;-89
2021/04/23 08:34:13;;;;;;;27.58;9.48;;;9.20;70.80;;;;;;6130175;23;20006;-90
2021/04/23 08:36:39;;;;;;;30.70;10.82;;;9.20;71.40;;;;;;6156062;23;20250;-89
2021/04/23 08:39:07;;;;;;;6.38;3.38;;;9.20;71.10;;;;;;6130632;23;20017;-90
2021/04/23 08:41:34;;;;;;;41.22;11.75;;;9.20;70.20;;;;;;6132914;23;20072;-89
2021/04/23 08:44:03;;;;;;;120.75;34.03;;;9.20;69.20;;;;;;6130693;23;20076;-89
2021/04/23 08:46:28;;;;;;;36.47;12.60;;;9.20;68.30;;;;;;6154321;23;20013;-90
2021/04/23 08:48:56;;;;;;;58.88;18.00;;;9.40;67.90;;;;;;6131497;23;20467;-89
2021/04/23 08:51:23;;;;;;;95.65;31.08;;;9.50;65.60;;;;;;6129533;23;20300;-89
2021/04/23 08:53:53;;;;;;;6.75;5.10;;;9.50;65.00;;;;;;6129721;23;20018;-89
2021/04/23 08:56:19;;;;;;;5.07;4.57;;;9.60;64.70;;;;;;6129694;23;20013;-89
2021/04/23 08:58:46;;;;;;;5.40;2.13;;;9.60;64.30;;;;;;6129849;23;20589;-89
2021/04/23 09:01:12;;;;;;;4.25;2.90;;;9.70;65.80;;;;;;6130259;23;20005;-88
2021/04/23 09:03:38;;;;;;;4.82;2.00;;;9.80;64.60;;;;;;6130222;23;20014;-88
2021/04/23 09:06:18;;;;;;;3.78;2.38;;;9.80;63.20;;;;;;6128746;23;20009;-88
2021/04/23 09:08:57;;;;;;;4.22;2.55;;;9.90;64.10;;;;;;6130207;23;20021;-89
2021/04/23 09:11:32;;;;;;;3.35;2.08;;;9.90;64.50;;;;;;6130315;23;20009;-89
2021/04/23 09:14:04;;;;;;;3.55;2.78;;;9.90;65.20;;;;;;6129223;23;20010;-87
2021/04/23 09:16:53;;;;;;;5.97;2.58;;;10.00;65.20;;;;;;6128592;23;20006;-89
2021/04/23 09:19:24;;;;;;;9.35;2.42;;;10.10;65.90;;;;;;6128411;23;20014;-89
2021/04/23 09:22:03;;;;;;;5.55;3.45;;;10.10;65.30;;;;;;6128563;23;20026;-88
2021/04/23 09:24:33;;;;;;;9.18;3.50;;;10.10;66.00;;;;;;6127844;23;20342;-89
2021/04/23 09:27:11;;;;;;;5.15;3.38;;;10.30;66.40;;;;;;6128531;23;20032;-89
2021/04/23 09:29:39;;;;;;;5.18;3.05;;;10.40;65.90;;;;;;6130368;23;20030;-88
2021/04/23 09:32:13;;;;;;;7.90;2.83;;;10.40;67.30;;;;;;6131558;23;20313;-88
2021/04/23 09:34:59;;;;;;;6.25;3.83;;;10.40;65.20;;;;;;6153332;23;20041;-89
2021/04/23 09:37:27;;;;;;;6.38;2.70;;;10.20;65.50;;;;;;6128456;23;20223;-89
2021/04/23 09:40:07;;;;;;;6.97;2.63;;;10.20;66.70;;;;;;6128586;23;20033;-89
2021/04/23 09:42:43;;;;;;;6.30;3.40;;;10.30;67.60;;;;;;6129280;23;20005;-89
2021/04/23 09:45:09;;;;;;;6.22;2.78;;;10.30;67.70;;;;;;6127774;23;20347;-89
2021/04/23 09:47:36;;;;;;;5.50;2.55;;;10.30;67.90;;;;;;6153239;23;20014;-87
2021/04/23 09:50:05;;;;;;;7.75;3.28;;;10.40;68.00;;;;;;6153210;23;20013;-89
2021/04/23 09:52:30;;;;;;;6.68;2.63;;;10.50;67.80;;;;;;6129280;23;20006;-89
2021/04/23 09:54:58;;;;;;;8.27;3.20;;;10.60;66.50;;;;;;6128255;23;20001;-88
2021/04/23 09:57:39;;;;;;;4.57;2.90;;;10.60;66.30;;;;;;6128176;23;20002;-89
2021/04/23 10:00:07;;;;;;;5.25;2.88;;;10.50;66.50;;;;;;6129978;23;20018;-90
2021/04/23 10:02:33;;;;;;;9.63;3.42;;;10.60;66.80;;;;;;6128586;23;20065;-90
2021/04/23 10:04:59;;;;;;;6.72;3.05;;;10.70;65.30;;;;;;6129700;23;20029;-89
2021/04/23 10:07:30;;;;;;;4.30;2.38;;;10.70;64.80;;;;;;6128841;23;20017;-89
2021/04/23 10:10:01;;;;;;;6.70;2.63;;;10.80;64.50;;;;;;6129304;23;20084;-89
2021/04/23 10:12:52;;;;;;;6.10;2.25;;;10.70;63.70;;;;;;6129927;23;20056;-90
2021/04/23 10:15:33;;;;;;;5.68;3.20;;;10.60;63.50;;;;;;6128795;23;20006;-90
2021/04/23 10:18:01;;;;;;;14.40;7.80;;;10.50;63.90;;;;;;6128387;23;20085;-90
2021/04/23 10:20:30;;;;;;;7.88;4.18;;;10.40;63.70;;;;;;6128278;23;20291;-89
2021/04/23 10:22:59;;;;;;;5.38;3.15;;;10.50;64.40;;;;;;6128447;23;20005;-88
2021/04/23 10:25:26;;;;;;;15.10;3.85;;;10.50;65.20;;;;;;6128032;23;20247;-89
2021/04/23 10:27:53;;;;;;;10.13;3.70;;;10.60;65.00;;;;;;6128604;23;20074;-89
2021/04/23 10:30:21;;;;;;;4.18;2.72;;;10.70;64.10;;;;;;6128510;23;20009;-88
2021/04/23 10:32:51;;;;;;;7.07;2.90;;;10.60;64.30;;;;;;6128249;23;20318;-89
2021/04/23 10:35:18;;;;;;;7.50;3.80;;;10.60;64.30;;;;;;6127712;23;20028;-90
2021/04/23 10:37:44;;;;;;;8.50;3.80;;;10.50;64.80;;;;;;6127541;23;20357;-89
2021/04/23 10:40:13;;;;;;;9.50;3.78;;;10.50;64.80;;;;;;6128327;23;20002;-89
2021/04/23 10:42:42;;;;;;;10.10;3.53;;;10.40;65.60;;;;;;6130712;23;20010;-88
2021/04/23 10:45:34;;;;;;;3.75;2.80;;;10.30;66.90;;;;;;6129748;23;20072;-89
2021/04/23 10:48:03;;;;;;;5.72;3.40;;;10.50;66.40;;;;;;6128991;23;20010;-88
2021/04/23 10:50:42;;;;;;;8.88;3.95;;;10.70;67.00;;;;;;6130286;23;20014;-87
2021/04/23 10:53:13;;;;;;;9.18;3.50;;;10.90;64.30;;;;;;6130893;23;20080;-88
2021/04/23 10:55:51;;;;;;;5.60;3.13;;;10.90;64.70;;;;;;6128391;23;20080;-87
2021/04/23 10:58:25;;;;;;;14.95;4.03;;;11.00;65.60;;;;;;6154196;23;20322;-88
2021/04/23 11:00:51;;;;;;;9.48;4.05;;;11.40;64.30;;;;;;6129386;23;20219;-89
2021/04/23 11:03:20;;;;;;;5.47;3.13;;;11.60;62.90;;;;;;6130807;23;20002;-90
2021/04/23 11:05:47;;;;;;;10.50;3.95;;;11.70;60.80;;;;;;6128511;23;20093;-89
2021/04/23 11:08:13;;;;;;;9.88;3.25;;;11.70;60.90;;;;;;6129973;23;20025;-89
2021/04/23 11:13:30;;;;;;;5.82;3.22;;;11.50;61.90;;;;;;6130068;23;20017;-89
2021/04/23 11:16:22;;;;;;;6.30;3.40;;;11.60;61.10;;;;;;6131194;23;20074;-90
2021/04/23 11:18:51;;;;;;;6.93;3.03;;;11.60;59.40;;;;;;6130442;23;20029;-90
2021/04/23 11:21:35;;;;;;;7.70;3.60;;;11.70;59.10;;;;;;6130687;23;20136;-89
2021/04/23 11:24:11;;;;;;;9.68;3.55;;;11.80;60.70;;;;;;6132237;23;20006;-90
2021/04/23 11:26:52;;;;;;;7.32;3.58;;;11.70;59.80;;;;;;6129580;23;20002;-89
2021/04/23 11:29:18;;;;;;;8.25;3.20;;;11.70;60.40;;;;;;6130760;23;20006;-88
2021/04/23 11:32:19;;;;;;;5.80;3.83;;;11.70;60.10;;;;;;6128914;23;20012;-89
2021/04/23 11:34:48;;;;;;;9.35;3.38;;;11.70;60.50;;;;;;6128793;23;20010;-88
2021/04/23 11:37:15;;;;;;;7.50;4.28;;;11.70;61.30;;;;;;6153315;23;20034;-90
2021/04/23 11:39:47;;;;;;;12.27;3.63;;;11.70;61.00;;;;;;6130059;23;20016;-88
2021/04/23 11:42:32;;;;;;;5.70;3.63;;;11.70;61.30;;;;;;6129543;23;20017;-89
2021/04/23 11:45:16;;;;;;;5.63;4.07;;;11.90;60.30;;;;;;6128395;23;20013;-88
2021/04/23 11:47:47;;;;;;;6.68;2.95;;;11.90;60.80;;;;;;6153787;23;20092;-89
2021/04/23 11:50:28;;;;;;;7.53;2.85;;;12.00;61.40;;;;;;6129162;23;20013;-89
2021/04/23 11:53:11;;;;;;;7.28;3.65;;;12.20;59.80;;;;;;6128900;23;20030;-90
2021/04/23 11:55:40;;;;;;;7.80;4.03;;;12.40;60.00;;;;;;6154668;23;20012;-89
2021/04/23 11:58:06;;;;;;;7.63;3.95;;;12.60;59.90;;;;;;6154272;23;20019;-90
2021/04/23 12:00:33;;;;;;;8.60;4.07;;;12.90;59.80;;;;;;6130013;23;20006;-88
2021/04/23 12:03:05;;;;;;;4.97;3.85;;;13.10;57.90;;;;;;6129157;23;20014;-89
2021/04/23 12:05:42;;;;;;;6.47;3.58;;;13.20;58.80;;;;;;6129592;23;20010;-89
2021/04/23 12:08:22;;;;;;;6.43;3.53;;;13.50;57.90;;;;;;6154761;23;20097;-87
2021/04/23 12:10:50;;;;;;;10.40;4.18;;;13.70;56.70;;;;;;6153627;23;20014;-88
2021/04/23 12:13:23;;;;;;;9.13;3.83;;;13.80;56.10;;;;;;6128995;23;20006;-88
2021/04/23 12:15:54;;;;;;;9.32;3.80;;;13.70;55.50;;;;;;6129146;23;20048;-88
2021/04/23 12:18:19;;;;;;;8.90;4.75;;;13.50;55.10;;;;;;6128968;23;20110;-87
2021/04/23 12:20:49;;;;;;;9.77;3.88;;;13.30;57.10;;;;;;6128530;23;20005;-88
2021/04/23 12:23:24;;;;;;;8.68;4.07;;;13.20;57.10;;;;;;6127976;23;20018;-89
2021/04/23 12:25:58;;;;;;;6.88;4.25;;;13.10;57.50;;;;;;6127995;23;20389;-88
2021/04/23 12:28:44;;;;;;;7.32;3.60;;;13.10;56.90;;;;;;6128776;23;20009;-88
2021/04/23 12:31:25;;;;;;;5.90;3.75;;;13.20;56.70;;;;;;6128733;23;20293;-89
2021/04/23 12:33:57;;;;;;;6.18;3.75;;;13.20;57.20;;;;;;6128443;23;20038;-88
2021/04/23 12:36:35;;;;;;;5.30;3.47;;;13.10;56.60;;;;;;6152403;23;20006;-88
2021/04/23 12:39:05;;;;;;;6.25;4.03;;;13.10;57.50;;;;;;6128194;23;20239;-89
2021/04/23 12:41:50;;;;;;;12.38;3.58;;;13.10;57.40;;;;;;6127956;23;20317;-89
2021/04/23 12:44:28;;;;;;;7.22;3.65;;;13.10;58.10;;;;;;6153776;23;20041;-89
2021/04/23 12:47:00;;;;;;;10.45;4.80;;;13.20;57.90;;;;;;6129135;23;20467;-89
2021/04/23 12:49:28;;;;;;;6.03;4.35;;;13.30;58.20;;;;;;6128468;23;20771;-89
2021/04/23 12:52:02;;;;;;;7.80;3.78;;;13.50;56.50;;;;;;6127811;23;20017;-89
2021/04/23 12:54:34;;;;;;;5.55;3.65;;;13.50;56.30;;;;;;6130108;23;20010;-90
2021/04/23 12:57:07;;;;;;;9.15;3.45;;;13.60;55.40;;;;;;6129940;23;20013;-88
2021/04/23 13:00:15;;;;;;;11.07;3.50;;;13.80;56.40;;;;;;6128942;23;20021;-90
2021/04/23 13:02:42;;;;;;;13.90;4.10;;;13.80;55.30;;;;;;6080589;23;20061;-89